createdAt,value
2022-09-13T00:00:48.508Z,3.05
2022-09-13T00:01:51.548Z,3.20
2022-09-13T00:02:53.606Z,3.00
2022-09-13T00:03:56.865Z,3.10
2022-09-13T00:04:58.776Z,2.88
2022-09-13T00:06:09.512Z,2.80
2022-09-13T00:07:12.442Z,3.45
2022-09-13T00:08:14.968Z,3.10
2022-09-13T00:09:18.054Z,2.60
2022-09-13T00:10:20.133Z,2.60
2022-09-13T00:11:25.793Z,2.67
2022-09-13T00:12:27.900Z,2.80
2022-09-13T00:13:32.326Z,2.97
2022-09-13T00:14:34.246Z,3.15
2022-09-13T00:15:38.242Z,3.40
2022-09-13T00:16:40.217Z,3.40
2022-09-13T00:17:43.722Z,3.55
2022-09-13T00:18:46.012Z,3.30
2022-09-13T00:19:48.921Z,2.40
2022-09-13T00:20:50.830Z,2.95
2022-09-13T00:21:53.730Z,3.22
2022-09-13T00:22:56.837Z,2.90
2022-09-13T00:23:59.732Z,3.25
2022-09-13T00:25:01.769Z,3.25
2022-09-13T00:26:06.808Z,3.17
2022-09-13T00:27:08.761Z,4.15
2022-09-13T00:28:11.697Z,2.53
2022-09-13T00:29:16.000Z,3.80
2022-09-13T00:30:17.957Z,2.72
2022-09-13T00:31:23.363Z,3.00
2022-09-13T00:32:25.472Z,3.20
2022-09-13T00:33:28.445Z,3.40
2022-09-13T00:34:30.551Z,2.97
2022-09-13T00:35:33.663Z,2.88
2022-09-13T00:36:35.602Z,3.45
2022-09-13T00:37:39.208Z,2.90
2022-09-13T00:38:42.530Z,2.70
2022-09-13T00:39:49.566Z,3.63
2022-09-13T00:40:51.740Z,2.90
2022-09-13T00:41:54.653Z,3.53
2022-09-13T00:42:56.797Z,3.10
2022-09-13T00:44:01.230Z,2.75
2022-09-13T00:45:15.981Z,2.78
2022-09-13T00:46:25.564Z,3.22
2022-09-13T00:47:35.309Z,3.28
2022-09-13T00:48:38.670Z,3.60
2022-09-13T00:49:42.029Z,3.00
2022-09-13T00:50:47.665Z,2.88
2022-09-13T00:51:52.033Z,3.00
2022-09-13T00:53:01.202Z,2.95
2022-09-13T00:54:04.885Z,3.38
2022-09-13T00:55:17.537Z,3.30
2022-09-13T00:56:25.118Z,3.55
2022-09-13T00:57:28.697Z,2.85
2022-09-13T00:58:34.736Z,2.53
2022-09-13T00:59:41.800Z,3.47
2022-09-13T01:00:46.005Z,3.55
2022-09-13T01:01:53.225Z,3.20
2022-09-13T01:02:59.408Z,3.78
2022-09-13T01:04:03.898Z,3.50
2022-09-13T01:05:06.595Z,3.00
2022-09-13T01:06:12.728Z,3.05
2022-09-13T01:07:17.998Z,3.10
2022-09-13T01:08:22.812Z,3.45
2022-09-13T01:09:25.930Z,3.40
2022-09-13T01:10:31.718Z,2.75
2022-09-13T01:11:44.180Z,3.20
2022-09-13T01:12:53.171Z,3.97
2022-09-13T01:13:56.028Z,3.60
2022-09-13T01:15:01.836Z,3.30
2022-09-13T01:16:05.507Z,3.25
2022-09-13T01:17:09.665Z,3.33
2022-09-13T01:18:12.070Z,3.00
2022-09-13T01:19:15.038Z,3.20
2022-09-13T01:20:17.569Z,3.20
2022-09-13T01:22:06.139Z,3.20
2022-09-13T01:23:37.634Z,3.72
2022-09-13T01:25:18.233Z,2.80
2022-09-13T01:26:53.189Z,3.33
2022-09-13T01:28:21.416Z,2.80
2022-09-13T01:29:56.841Z,2.97
2022-09-13T01:31:04.643Z,2.95
2022-09-13T01:32:18.293Z,3.30
2022-09-13T01:33:53.190Z,3.67
2022-09-13T01:35:07.548Z,3.30
2022-09-13T01:36:32.732Z,3.05
2022-09-13T01:37:47.701Z,2.90
2022-09-13T01:38:57.812Z,3.05
2022-09-13T01:40:12.030Z,3.10
2022-09-13T01:41:28.848Z,2.85
2022-09-13T01:42:49.926Z,2.95
2022-09-13T01:43:58.228Z,3.47
2022-09-13T01:45:13.732Z,3.38
2022-09-13T01:46:19.478Z,3.00
2022-09-13T01:47:28.445Z,3.10
2022-09-13T01:48:41.134Z,2.85
2022-09-13T01:49:48.125Z,2.83
2022-09-13T01:51:00.106Z,2.92
2022-09-13T01:52:06.981Z,3.50
2022-09-13T01:53:27.047Z,2.83
2022-09-13T01:54:37.674Z,3.00
2022-09-13T01:55:47.256Z,3.60
2022-09-13T01:56:56.664Z,2.85
2022-09-13T01:58:08.438Z,3.05
2022-09-13T01:59:16.503Z,3.15
2022-09-13T02:00:20.547Z,3.00
2022-09-13T02:01:29.495Z,2.92
2022-09-13T02:02:36.774Z,2.92
2022-09-13T02:03:44.591Z,3.50
2022-09-13T02:04:54.304Z,3.78
2022-09-13T02:05:59.691Z,2.75
2022-09-13T02:07:07.967Z,2.70
2022-09-13T02:08:15.275Z,2.85
2022-09-13T02:09:21.756Z,3.15
2022-09-13T02:10:27.645Z,3.17
2022-09-13T02:11:31.268Z,2.70
2022-09-13T02:12:36.474Z,2.55
2022-09-13T02:13:43.668Z,3.38
2022-09-13T02:14:51.260Z,2.83
2022-09-13T02:15:59.202Z,3.25
2022-09-13T02:17:05.945Z,3.38
2022-09-13T02:18:11.929Z,2.63
2022-09-13T02:19:19.602Z,3.13
2022-09-13T02:20:28.769Z,3.50
2022-09-13T02:21:36.019Z,3.40
2022-09-13T02:22:46.844Z,2.90
2022-09-13T02:23:53.418Z,3.22
2022-09-13T02:25:01.337Z,3.50
2022-09-13T02:26:04.875Z,2.95
2022-09-13T02:27:13.050Z,3.15
2022-09-13T02:28:21.172Z,3.25
2022-09-13T02:29:28.833Z,3.17
2022-09-13T02:30:33.798Z,3.00
2022-09-13T02:31:42.820Z,2.90
2022-09-13T02:32:51.201Z,3.45
2022-09-13T02:33:58.182Z,3.05
2022-09-13T02:35:04.195Z,3.65
2022-09-13T02:36:10.859Z,3.60
2022-09-13T02:37:13.283Z,3.33
2022-09-13T02:38:22.048Z,3.10
2022-09-13T02:39:26.009Z,3.45
2022-09-13T02:40:34.400Z,3.53
2022-09-13T02:41:42.604Z,3.85
2022-09-13T02:42:52.375Z,3.15
2022-09-13T02:44:05.298Z,4.55
2022-09-13T02:45:09.138Z,4.38
2022-09-13T02:46:24.774Z,4.88
2022-09-13T02:47:39.946Z,4.60
2022-09-13T02:48:52.610Z,4.00
2022-09-13T02:50:04.129Z,4.10
2022-09-13T02:51:15.140Z,4.05
2022-09-13T02:52:24.585Z,4.65
2022-09-13T02:53:35.094Z,4.57
2022-09-13T02:54:43.748Z,5.28
2022-09-13T02:55:52.665Z,5.07
2022-09-13T02:57:00.658Z,4.10
2022-09-13T02:58:10.718Z,4.35
2022-09-13T02:59:17.209Z,4.68
2022-09-13T03:00:19.496Z,4.10
2022-09-13T03:01:22.623Z,5.63
2022-09-13T03:02:29.401Z,4.25
2022-09-13T03:03:32.455Z,4.85
2022-09-13T03:04:35.913Z,4.75
2022-09-13T03:05:38.830Z,6.00
2022-09-13T03:06:41.489Z,6.05
2022-09-13T03:07:44.401Z,6.13
2022-09-13T03:08:46.334Z,5.63
2022-09-13T03:09:52.913Z,5.85
2022-09-13T03:11:07.814Z,5.75
2022-09-13T03:12:34.985Z,5.78
2022-09-13T03:14:08.674Z,6.82
2022-09-13T03:15:18.034Z,6.43
2022-09-13T03:16:38.134Z,6.60
2022-09-13T03:17:51.642Z,7.18
2022-09-13T03:19:07.885Z,7.88
2022-09-13T03:20:18.507Z,6.68
2022-09-13T03:21:37.855Z,6.53
2022-09-13T03:23:09.784Z,6.57
2022-09-13T03:24:22.645Z,6.80
2022-09-13T03:25:39.568Z,7.95
2022-09-13T03:26:55.392Z,7.65
2022-09-13T03:28:05.941Z,7.93
2022-09-13T03:29:24.182Z,7.32
2022-09-13T03:30:27.098Z,6.97
2022-09-13T03:31:34.067Z,6.80
2022-09-13T03:32:43.625Z,7.30
2022-09-13T03:33:52.077Z,7.38
2022-09-13T03:35:03.895Z,8.07
2022-09-13T03:36:15.260Z,7.30
2022-09-13T03:37:25.539Z,6.95
2022-09-13T03:38:32.904Z,7.75
2022-09-13T03:39:42.863Z,7.80
2022-09-13T03:40:49.943Z,8.00
2022-09-13T03:41:57.167Z,7.90
2022-09-13T03:43:06.049Z,6.80
2022-09-13T03:44:11.542Z,7.40
2022-09-13T03:45:17.452Z,7.80
2022-09-13T03:46:24.738Z,6.93
2022-09-13T03:47:30.129Z,6.97
2022-09-13T03:48:35.931Z,7.43
2022-09-13T03:49:40.012Z,7.18
2022-09-13T03:50:43.059Z,7.20
2022-09-13T03:51:50.543Z,7.35
2022-09-13T03:52:58.829Z,8.15
2022-09-13T03:54:06.049Z,7.03
2022-09-13T03:55:08.624Z,7.60
2022-09-13T03:56:15.604Z,8.02
2022-09-13T03:57:21.002Z,8.10
2022-09-13T03:58:24.410Z,8.70
2022-09-13T03:59:26.843Z,8.88
2022-09-13T04:00:30.130Z,8.20
2022-09-13T04:01:32.067Z,8.13
2022-09-13T04:02:35.053Z,7.22
2022-09-13T04:03:37.088Z,7.22
2022-09-13T04:04:43.902Z,7.18
2022-09-13T04:05:46.361Z,7.28
2022-09-13T04:06:50.626Z,7.35
2022-09-13T04:07:53.533Z,7.35
2022-09-13T04:08:55.464Z,7.95
2022-09-13T04:09:58.403Z,8.15
2022-09-13T04:11:01.451Z,7.25
2022-09-13T04:12:04.518Z,6.50
2022-09-13T04:13:06.459Z,7.43
2022-09-13T04:14:09.786Z,7.82
2022-09-13T04:15:11.737Z,7.60
2022-09-13T04:16:15.232Z,8.48
2022-09-13T04:17:17.304Z,8.02
2022-09-13T04:18:20.235Z,7.60
2022-09-13T04:19:23.601Z,8.20
2022-09-13T04:20:26.625Z,7.57
2022-09-13T04:21:28.757Z,7.80
2022-09-13T04:22:33.543Z,8.50
2022-09-13T04:23:35.469Z,7.80
2022-09-13T04:24:38.814Z,8.13
2022-09-13T04:25:40.731Z,8.13
2022-09-13T04:26:43.677Z,7.97
2022-09-13T04:27:45.613Z,8.30
2022-09-13T04:28:48.636Z,8.52
2022-09-13T04:29:50.616Z,8.52
2022-09-13T04:30:53.522Z,8.10
2022-09-13T04:31:55.839Z,8.15
2022-09-13T04:32:59.483Z,8.00
2022-09-13T04:34:01.763Z,9.27
2022-09-13T04:35:04.798Z,8.63
2022-09-13T04:36:07.085Z,9.40
2022-09-13T04:37:10.342Z,8.82
2022-09-13T04:38:13.652Z,9.73
2022-09-13T04:39:16.666Z,8.45
2022-09-13T04:40:18.703Z,8.98
2022-09-13T04:41:21.665Z,8.15
2022-09-13T04:42:23.626Z,8.18
2022-09-13T04:43:26.758Z,8.63
2022-09-13T04:44:29.667Z,8.23
2022-09-13T04:45:32.740Z,7.95
2022-09-13T04:46:34.760Z,9.95
2022-09-13T04:47:38.056Z,8.82
2022-09-13T04:48:39.958Z,9.30
2022-09-13T04:49:42.893Z,8.80
2022-09-13T04:50:44.943Z,8.70
2022-09-13T04:51:48.568Z,9.02
2022-09-13T04:52:50.632Z,9.60
2022-09-13T04:53:55.664Z,8.02
2022-09-13T04:55:01.446Z,8.80
2022-09-13T04:56:04.838Z,8.43
2022-09-13T04:57:07.777Z,7.65
2022-09-13T04:58:09.726Z,9.65
2022-09-13T04:59:13.086Z,8.27
2022-09-13T05:00:15.405Z,8.40
2022-09-13T05:01:18.919Z,8.85
2022-09-13T05:02:21.030Z,7.80
2022-09-13T05:03:24.054Z,8.55
2022-09-13T05:04:25.997Z,7.97
2022-09-13T05:05:29.670Z,9.43
2022-09-13T05:06:31.633Z,8.52
2022-09-13T05:07:34.529Z,8.82
2022-09-13T05:08:37.319Z,8.88
2022-09-13T05:09:41.776Z,8.60
2022-09-13T05:10:43.688Z,9.35
2022-09-13T05:11:46.614Z,8.80
2022-09-13T05:12:48.914Z,9.30
2022-09-13T05:13:55.121Z,8.07
2022-09-13T05:14:57.143Z,8.80
2022-09-13T05:16:01.901Z,8.27
2022-09-13T05:17:03.998Z,8.57
2022-09-13T05:18:07.254Z,8.43
2022-09-13T05:19:10.151Z,7.60
2022-09-13T05:20:13.139Z,8.00
2022-09-13T05:21:15.105Z,8.40
2022-09-13T05:22:18.130Z,8.40
2022-09-13T05:23:20.065Z,9.30
2022-09-13T05:24:23.118Z,8.32
2022-09-13T05:25:26.438Z,8.63
2022-09-13T05:26:31.388Z,8.20
2022-09-13T05:27:33.383Z,7.82
2022-09-13T05:28:37.799Z,7.80
2022-09-13T05:29:39.732Z,8.25
2022-09-13T05:30:42.695Z,7.30
2022-09-13T05:31:45.766Z,8.00
2022-09-13T05:32:47.737Z,7.43
2022-09-13T05:34:26.706Z,7.50
2022-09-13T05:35:28.763Z,7.72
2022-09-13T05:36:31.713Z,8.30
2022-09-13T05:37:33.798Z,7.75
2022-09-13T05:38:36.791Z,9.05
2022-09-13T05:40:00.421Z,8.30
2022-09-13T05:41:04.564Z,8.05
2022-09-13T05:42:06.614Z,8.07
2022-09-13T05:43:09.521Z,7.35
2022-09-13T05:44:13.593Z,8.10
2022-09-13T05:45:17.026Z,7.60
2022-09-13T05:46:20.573Z,7.65
2022-09-13T05:47:23.471Z,7.70
2022-09-13T05:48:25.377Z,7.75
2022-09-13T05:49:28.298Z,8.07
2022-09-13T05:50:56.695Z,8.23
2022-09-13T05:51:53.210Z,8.55
2022-09-13T05:52:55.865Z,7.10
2022-09-13T05:53:59.689Z,8.15
2022-09-13T05:55:01.596Z,7.60
2022-09-13T05:56:06.410Z,7.85
2022-09-13T05:57:08.335Z,7.22
2022-09-13T05:58:11.293Z,7.55
2022-09-13T05:59:15.147Z,7.68
2022-09-13T06:00:17.730Z,7.95
2022-09-13T06:01:23.318Z,7.25
2022-09-13T06:02:25.308Z,7.18
2022-09-13T06:03:28.306Z,7.40
2022-09-13T06:04:30.447Z,7.00
2022-09-13T06:05:33.349Z,8.05
2022-09-13T06:06:35.356Z,7.28
2022-09-13T06:07:40.293Z,7.72
2022-09-13T06:08:43.345Z,7.20
2022-09-13T06:09:45.528Z,6.38
2022-09-13T06:10:55.765Z,7.68
2022-09-13T06:12:00.035Z,8.00
2022-09-13T06:13:01.950Z,7.60
2022-09-13T06:14:04.874Z,7.45
2022-09-13T06:15:09.159Z,6.65
2022-09-13T06:16:13.877Z,6.93
2022-09-13T06:17:15.874Z,7.07
2022-09-13T06:18:19.253Z,7.88
2022-09-13T06:19:21.161Z,7.13
2022-09-13T06:20:24.248Z,7.05
2022-09-13T06:21:29.082Z,6.50
2022-09-13T06:22:35.179Z,7.22
2022-09-13T06:23:37.677Z,6.28
2022-09-13T06:24:40.731Z,7.25
2022-09-13T06:25:43.226Z,6.65
2022-09-13T06:26:46.141Z,7.00
2022-09-13T06:27:50.213Z,6.40
2022-09-13T06:28:55.330Z,6.88
2022-09-13T06:29:57.342Z,7.10
2022-09-13T06:31:04.655Z,6.93
2022-09-13T06:32:07.907Z,7.43
2022-09-13T06:33:09.844Z,6.60
2022-09-13T06:34:14.301Z,7.32
2022-09-13T06:35:16.626Z,7.10
2022-09-13T06:36:20.799Z,7.05
2022-09-13T06:37:22.803Z,7.55
2022-09-13T06:38:25.758Z,7.00
2022-09-13T06:39:27.774Z,6.10
2022-09-13T06:40:30.822Z,6.80
2022-09-13T06:41:33.070Z,6.35
2022-09-13T06:42:36.822Z,7.35
2022-09-13T06:43:41.069Z,6.88
2022-09-13T06:44:46.101Z,6.70
2022-09-13T06:45:48.095Z,6.75
2022-09-13T06:46:51.359Z,6.95
2022-09-13T06:47:55.831Z,6.38
2022-09-13T06:49:03.408Z,6.75
2022-09-13T06:50:06.143Z,6.13
2022-09-13T06:51:11.889Z,6.15
2022-09-13T06:52:13.837Z,6.13
2022-09-13T06:53:16.803Z,6.03
2022-09-13T06:54:18.947Z,6.85
2022-09-13T06:56:49.971Z,5.72
2022-09-13T06:57:51.885Z,5.47
2022-09-13T06:58:58.867Z,5.50
2022-09-13T07:00:00.862Z,5.88
2022-09-13T07:01:12.768Z,5.90
2022-09-13T07:02:15.702Z,5.53
2022-09-13T07:03:18.713Z,5.70
2022-09-13T07:04:20.868Z,5.80
2022-09-13T07:05:23.819Z,6.18
2022-09-13T07:06:28.335Z,6.72
2022-09-13T07:07:32.390Z,6.80
2022-09-13T07:08:34.593Z,6.63
2022-09-13T07:09:37.714Z,7.05
2022-09-13T07:10:39.643Z,7.00
2022-09-13T07:11:43.631Z,6.70
2022-09-13T07:12:45.561Z,6.22
2022-09-13T07:13:50.282Z,6.85
2022-09-13T07:14:53.791Z,6.50
2022-09-13T07:15:56.768Z,5.95
2022-09-13T07:17:00.386Z,7.25
2022-09-13T07:18:02.348Z,7.22
2022-09-13T07:19:06.876Z,7.75
2022-09-13T07:20:09.458Z,6.90
2022-09-13T07:21:13.086Z,6.38
2022-09-13T07:22:17.105Z,6.57
2022-09-13T07:23:19.098Z,6.28
2022-09-13T07:24:22.954Z,6.57
2022-09-13T07:25:24.890Z,7.20
2022-09-13T07:26:28.703Z,7.15
2022-09-13T07:27:31.043Z,6.88
2022-09-13T07:28:35.742Z,6.60
2022-09-13T07:29:37.732Z,6.90
2022-09-13T07:30:42.099Z,7.78
2022-09-13T07:31:46.728Z,6.05
2022-09-13T07:32:49.641Z,8.27
2022-09-13T07:33:55.350Z,7.32
2022-09-13T07:34:58.336Z,7.40
2022-09-13T07:36:03.484Z,7.20
2022-09-13T07:37:06.429Z,7.22
2022-09-13T07:38:08.379Z,7.50
2022-09-13T07:39:15.636Z,7.60
2022-09-13T07:40:18.505Z,7.78
2022-09-13T07:41:25.509Z,7.80
2022-09-13T07:42:28.480Z,6.85
2022-09-13T07:43:30.470Z,7.55
2022-09-13T07:44:33.382Z,8.23
2022-09-13T07:45:35.320Z,7.78
2022-09-13T07:46:43.482Z,8.18
2022-09-13T07:47:45.576Z,7.70
2022-09-13T07:48:49.506Z,7.60
2022-09-13T07:49:52.611Z,6.55
2022-09-13T07:50:58.817Z,7.20
2022-09-13T07:52:01.868Z,8.38
2022-09-13T07:53:04.505Z,7.20
2022-09-13T07:54:11.116Z,7.85
2022-09-13T07:55:13.199Z,7.07
2022-09-13T07:56:18.253Z,7.00
2022-09-13T07:57:21.206Z,8.13
2022-09-13T07:58:23.274Z,8.48
2022-09-13T07:59:30.076Z,7.88
2022-09-13T08:00:32.272Z,8.43
2022-09-13T08:01:37.700Z,8.27
2022-09-13T08:02:41.253Z,6.72
2022-09-13T08:03:44.785Z,8.32
2022-09-13T08:04:47.734Z,8.05
2022-09-13T08:05:49.661Z,7.00
2022-09-13T08:06:52.683Z,7.30
2022-09-13T08:07:54.606Z,6.75
2022-09-13T08:08:57.914Z,7.55
2022-09-13T08:09:59.856Z,7.60
2022-09-13T08:11:04.483Z,6.50
2022-09-13T08:12:06.736Z,7.47
2022-09-13T08:13:09.674Z,6.80
2022-09-13T08:14:14.558Z,7.93
2022-09-13T08:15:16.646Z,6.90
2022-09-13T08:16:21.432Z,7.50
2022-09-13T08:17:23.390Z,7.60
2022-09-13T08:18:27.769Z,8.48
2022-09-13T08:19:30.640Z,7.32
2022-09-13T08:20:36.170Z,6.65
2022-09-13T08:21:40.663Z,8.00
2022-09-13T08:22:42.621Z,7.00
2022-09-13T08:23:46.234Z,7.45
2022-09-13T08:24:48.218Z,7.28
2022-09-13T08:25:51.545Z,6.88
2022-09-13T08:26:55.002Z,6.15
2022-09-13T08:27:57.943Z,6.90
2022-09-13T08:29:02.944Z,7.78
2022-09-13T08:30:05.505Z,7.75
2022-09-13T08:31:09.856Z,7.07
2022-09-13T08:32:11.787Z,7.07
2022-09-13T08:33:15.273Z,7.40
2022-09-13T08:34:21.286Z,7.35
2022-09-13T08:35:23.178Z,6.68
2022-09-13T08:36:27.138Z,6.78
2022-09-13T08:37:29.049Z,6.70
2022-09-13T08:38:33.043Z,6.70
2022-09-13T08:39:34.982Z,6.47
2022-09-13T08:40:42.504Z,6.22
2022-09-13T08:42:07.053Z,7.18
2022-09-13T08:43:18.490Z,6.82
2022-09-13T08:44:27.231Z,6.28
2022-09-13T08:45:30.281Z,6.10
2022-09-13T08:46:35.588Z,7.18
2022-09-13T08:47:44.594Z,6.88
2022-09-13T08:48:48.993Z,6.03
2022-09-13T08:50:00.614Z,6.13
2022-09-13T08:51:08.187Z,6.03
2022-09-13T08:52:22.154Z,6.10
2022-09-13T08:53:29.329Z,5.63
2022-09-13T08:54:32.699Z,5.40
2022-09-13T08:55:50.239Z,5.45
2022-09-13T08:56:59.318Z,5.90
2022-09-13T08:58:09.176Z,5.10
2022-09-13T08:59:28.782Z,5.00
2022-09-13T09:00:35.286Z,5.80
2022-09-13T09:01:50.404Z,5.22
2022-09-13T09:03:02.652Z,4.85
2022-09-13T09:04:13.621Z,5.15
2022-09-13T09:05:21.031Z,5.07
2022-09-13T09:06:24.231Z,4.97
2022-09-13T09:07:31.168Z,5.20
2022-09-13T09:08:39.657Z,4.70
2022-09-13T09:09:48.720Z,4.65
2022-09-13T09:10:53.174Z,4.20
2022-09-13T09:12:05.978Z,5.15
2022-09-13T09:13:24.657Z,4.85
2022-09-13T09:14:33.266Z,5.15
2022-09-13T09:15:40.568Z,4.97
2022-09-13T09:16:48.356Z,4.75
2022-09-13T09:17:56.022Z,4.28
2022-09-13T09:19:04.501Z,4.63
2022-09-13T09:20:16.787Z,4.45
2022-09-13T09:21:21.875Z,3.83
2022-09-13T09:22:29.202Z,4.30
2022-09-13T09:23:39.037Z,4.38
2022-09-13T09:24:46.595Z,4.03
2022-09-13T09:25:51.929Z,4.65
2022-09-13T09:26:56.972Z,4.00
2022-09-13T09:28:00.847Z,4.07
2022-09-13T09:29:21.748Z,3.72
2022-09-13T09:30:39.102Z,4.07
2022-09-13T09:31:52.266Z,4.63
2022-09-13T09:33:10.704Z,4.28
2022-09-13T09:34:23.598Z,3.90
2022-09-13T09:35:43.014Z,4.03
2022-09-13T09:36:54.975Z,4.03
2022-09-13T09:38:20.564Z,4.00
2022-09-13T09:39:38.911Z,3.30
2022-09-13T09:40:40.940Z,3.70
2022-09-13T09:41:45.079Z,3.92
2022-09-13T09:42:49.088Z,3.90
2022-09-13T09:43:56.670Z,4.15
2022-09-13T09:45:02.603Z,3.50
2022-09-13T09:46:07.233Z,3.67
2022-09-13T09:47:16.758Z,3.95
2022-09-13T09:48:24.125Z,4.25
2022-09-13T09:49:52.002Z,4.20
2022-09-13T09:50:59.283Z,3.60
2022-09-13T09:52:07.328Z,3.63
2022-09-13T09:53:15.385Z,4.43
2022-09-13T09:54:18.133Z,4.03
2022-09-13T09:55:29.025Z,4.10
2022-09-13T09:56:32.874Z,3.67
2022-09-13T09:57:52.182Z,3.35
2022-09-13T09:58:55.866Z,3.95
2022-09-13T10:00:11.996Z,4.05
2022-09-13T10:01:23.902Z,3.88
2022-09-13T10:02:26.899Z,3.03
2022-09-13T10:03:30.470Z,3.63
2022-09-13T10:04:33.619Z,3.10
2022-09-13T10:05:36.264Z,3.95
2022-09-13T10:06:41.074Z,4.07
2022-09-13T10:07:44.567Z,3.20
2022-09-13T10:08:56.232Z,4.07
2022-09-13T10:10:01.315Z,3.58
2022-09-13T10:11:05.045Z,3.85
2022-09-13T10:12:07.411Z,4.45
2022-09-13T10:13:17.124Z,4.35
2022-09-13T10:14:42.618Z,4.00
2022-09-13T10:15:55.221Z,3.92
2022-09-13T10:17:18.869Z,4.20
2022-09-13T10:19:55.352Z,4.22
2022-09-13T10:21:05.558Z,4.30
2022-09-13T10:22:12.244Z,4.85
2022-09-13T10:23:22.861Z,4.43
2022-09-13T10:24:24.760Z,5.00
2022-09-13T10:25:28.181Z,4.18
2022-09-13T10:26:33.901Z,4.13
2022-09-13T10:27:42.220Z,4.05
2022-09-13T10:28:52.468Z,4.07
2022-09-13T10:29:59.608Z,3.90
2022-09-13T10:31:07.303Z,3.85
2022-09-13T10:32:09.903Z,4.72
2022-09-13T10:33:29.432Z,3.42
2022-09-13T10:34:35.222Z,4.00
2022-09-13T10:35:37.781Z,3.63
2022-09-13T10:36:52.492Z,3.88
2022-09-13T10:37:56.121Z,4.07
2022-09-13T10:39:03.148Z,3.70
2022-09-13T10:40:09.735Z,4.15
2022-09-13T10:41:21.956Z,3.83
2022-09-13T10:42:27.741Z,3.50
2022-09-13T10:43:31.306Z,3.65
2022-09-13T10:44:43.714Z,4.05
2022-09-13T10:45:49.634Z,4.28
2022-09-13T10:46:53.065Z,3.35
2022-09-13T10:48:00.018Z,4.25
2022-09-13T10:49:02.961Z,3.53
2022-09-13T10:50:20.825Z,3.70
2022-09-13T10:51:35.775Z,4.38
2022-09-13T10:52:44.861Z,4.10
2022-09-13T10:53:47.432Z,3.58
2022-09-13T10:54:51.868Z,3.92
2022-09-13T10:55:54.494Z,4.18
2022-09-13T10:56:57.489Z,3.67
2022-09-13T10:58:27.573Z,3.75
2022-09-13T10:59:31.730Z,3.92
2022-09-13T11:00:40.105Z,3.60
2022-09-13T11:01:47.820Z,4.18
2022-09-13T11:03:18.574Z,3.33
2022-09-13T11:04:46.391Z,3.80
2022-09-13T11:05:58.272Z,3.33
2022-09-13T11:07:12.040Z,4.55
2022-09-13T11:08:28.539Z,3.63
2022-09-13T11:09:37.786Z,4.07
2022-09-13T11:10:54.170Z,3.53
2022-09-13T11:12:03.925Z,3.22
2022-09-13T11:13:12.356Z,3.67
2022-09-13T11:14:30.849Z,3.88
2022-09-13T11:15:47.429Z,4.40
2022-09-13T11:17:03.730Z,3.95
2022-09-13T11:18:28.566Z,3.97
2022-09-13T11:19:58.272Z,3.70
2022-09-13T11:21:12.515Z,3.50
2022-09-13T11:22:36.912Z,3.28
2022-09-13T11:24:02.086Z,3.95
2022-09-13T11:25:17.213Z,3.85
2022-09-13T11:26:38.301Z,4.30
2022-09-13T11:27:49.205Z,3.65
2022-09-13T11:28:59.841Z,4.30
2022-09-13T11:30:11.204Z,3.65
2022-09-13T11:31:30.207Z,4.68
2022-09-13T11:32:56.571Z,4.03
2022-09-13T11:34:12.607Z,4.10
2022-09-13T11:35:28.097Z,3.63
2022-09-13T11:36:47.085Z,4.22
2022-09-13T11:37:59.801Z,3.88
2022-09-13T11:39:13.510Z,4.78
2022-09-13T11:40:36.273Z,3.72
2022-09-13T11:41:47.564Z,3.72
2022-09-13T11:42:59.221Z,3.97
2022-09-13T11:44:28.446Z,3.53
2022-09-13T11:45:33.479Z,4.15
2022-09-13T11:46:43.095Z,4.00
2022-09-13T11:47:57.788Z,4.15
2022-09-13T11:49:28.776Z,4.25
2022-09-13T11:50:38.051Z,3.65
2022-09-13T11:51:53.195Z,3.95
2022-09-13T11:53:11.899Z,3.50
2022-09-13T11:54:23.924Z,3.80
2022-09-13T11:55:31.162Z,3.97
2022-09-13T11:56:38.905Z,3.28
2022-09-13T11:57:48.440Z,3.38
2022-09-13T11:58:53.572Z,3.20
2022-09-13T12:00:00.266Z,3.85
2022-09-13T12:01:07.037Z,3.63
2022-09-13T12:02:18.859Z,3.90
2022-09-13T12:03:27.273Z,4.22
2022-09-13T12:04:34.587Z,3.33
2022-09-13T12:05:45.694Z,3.63
2022-09-13T12:06:53.634Z,3.30
2022-09-13T12:08:01.162Z,3.60
2022-09-13T12:09:11.735Z,3.88
2022-09-13T12:10:20.031Z,3.22
2022-09-13T12:11:27.697Z,3.58
2022-09-13T12:12:35.598Z,3.08
2022-09-13T12:13:44.802Z,3.80
2022-09-13T12:14:52.718Z,3.78
2022-09-13T12:16:02.187Z,3.60
2022-09-13T12:17:12.589Z,3.60
2022-09-13T12:18:20.902Z,4.30
2022-09-13T12:19:26.971Z,4.22
2022-09-13T12:20:34.930Z,3.42
2022-09-13T12:21:39.501Z,3.70
2022-09-13T12:22:43.893Z,4.07
2022-09-13T12:23:54.291Z,3.30
2022-09-13T12:24:59.476Z,3.03
2022-09-13T12:26:05.959Z,3.40
2022-09-13T12:27:16.536Z,3.63
2022-09-13T12:28:24.740Z,3.30
2022-09-13T12:29:33.266Z,3.28
2022-09-13T12:30:42.706Z,3.35
2022-09-13T12:31:45.753Z,3.95
2022-09-13T12:32:49.140Z,3.70
2022-09-13T12:33:52.296Z,4.07
2022-09-13T12:34:58.558Z,3.38
2022-09-13T12:36:22.815Z,3.50
2022-09-13T12:37:59.333Z,3.78
2022-09-13T12:39:27.469Z,3.70
2022-09-13T12:40:45.441Z,4.28
2022-09-13T12:42:00.358Z,3.72
2022-09-13T12:43:25.437Z,3.40
2022-09-13T12:45:03.717Z,3.78
2022-09-13T12:46:33.758Z,3.58
2022-09-13T12:48:12.398Z,3.60
2022-09-13T12:49:29.129Z,3.95
2022-09-13T12:50:55.641Z,4.10
2022-09-13T12:52:27.241Z,3.67
2022-09-13T12:53:52.418Z,3.95
2022-09-13T12:55:45.234Z,4.13
2022-09-13T12:57:02.617Z,4.10
2022-09-13T12:58:28.950Z,4.03
2022-09-13T12:59:52.998Z,3.60
2022-09-13T13:01:10.683Z,4.22
2022-09-13T13:02:31.118Z,3.83
2022-09-13T13:03:37.278Z,3.72
2022-09-13T13:04:40.642Z,4.05
2022-09-13T13:05:47.197Z,4.25
2022-09-13T13:06:52.580Z,3.65
2022-09-13T13:07:59.309Z,4.15
2022-09-13T13:09:06.211Z,3.88
2022-09-13T13:10:27.006Z,3.40
2022-09-13T13:11:40.735Z,3.70
2022-09-13T13:12:44.018Z,3.63
2022-09-13T13:13:53.594Z,3.92
2022-09-13T13:14:58.346Z,3.85
2022-09-13T13:16:04.688Z,3.50
2022-09-13T13:17:40.664Z,3.38
2022-09-13T13:18:49.428Z,4.07
2022-09-13T13:19:51.340Z,3.78
2022-09-13T13:21:33.896Z,3.55
2022-09-13T13:22:52.307Z,3.53
2022-09-13T13:24:47.017Z,4.50
2022-09-13T13:26:13.278Z,4.80
2022-09-13T13:27:41.211Z,4.20
2022-09-13T13:29:15.603Z,4.30
2022-09-13T13:30:54.059Z,4.90
2022-09-13T13:32:13.505Z,4.30
2022-09-13T13:33:18.741Z,4.60
2022-09-13T13:34:38.790Z,3.92
2022-09-13T13:35:41.056Z,4.18
2022-09-13T13:36:48.997Z,4.28
2022-09-13T13:37:51.029Z,4.10
2022-09-13T13:38:55.761Z,4.18
2022-09-13T13:40:25.835Z,4.10
2022-09-13T13:41:52.361Z,3.75
2022-09-13T13:43:31.458Z,3.85
2022-09-13T13:45:09.729Z,3.60
2022-09-13T13:46:31.290Z,3.40
2022-09-13T13:47:55.079Z,3.88
2022-09-13T13:49:19.010Z,4.57
2022-09-13T13:50:22.453Z,5.10
2022-09-13T13:51:29.470Z,4.60
2022-09-13T13:52:38.378Z,4.13
2022-09-13T13:53:43.274Z,3.90
2022-09-13T13:55:04.304Z,5.22
2022-09-13T13:56:15.889Z,3.70
2022-09-13T13:57:24.938Z,4.60
2022-09-13T13:58:33.553Z,4.05
2022-09-13T13:59:36.928Z,4.80
2022-09-13T14:00:47.373Z,4.90
2022-09-13T14:01:55.307Z,4.65
2022-09-13T14:03:10.189Z,4.85
2022-09-13T14:04:55.882Z,4.70
2022-09-13T14:06:07.254Z,4.47
2022-09-13T14:07:22.127Z,3.97
2022-09-13T14:08:35.969Z,4.50
2022-09-13T14:09:47.380Z,4.45
2022-09-13T14:10:57.241Z,4.20
2022-09-13T14:12:14.999Z,4.70
2022-09-13T14:13:38.872Z,4.65
2022-09-13T14:14:57.769Z,4.63
2022-09-13T14:16:11.118Z,5.25
2022-09-13T14:18:02.985Z,4.60
2022-09-13T14:19:25.834Z,5.10
2022-09-13T14:20:28.863Z,4.95
2022-09-13T14:21:33.171Z,4.70
2022-09-13T14:22:35.183Z,4.95
2022-09-13T14:23:38.099Z,4.60
2022-09-13T14:24:43.170Z,4.80
2022-09-13T14:25:46.447Z,4.57
2022-09-13T14:26:50.598Z,4.55
2022-09-13T14:28:01.921Z,4.70
2022-09-13T14:29:07.438Z,4.85
2022-09-13T14:30:20.340Z,4.90
2022-09-13T14:31:22.364Z,4.50
2022-09-13T14:32:35.068Z,4.10
2022-09-13T14:33:39.280Z,4.35
2022-09-13T14:34:53.569Z,4.80
2022-09-13T14:36:02.926Z,4.70
2022-09-13T14:37:18.345Z,4.25
2022-09-13T14:38:22.986Z,4.07
2022-09-13T14:39:27.130Z,4.50
2022-09-13T14:40:29.128Z,5.30
2022-09-13T14:41:34.435Z,5.57
2022-09-13T14:42:41.905Z,5.20
2022-09-13T14:43:45.745Z,5.00
2022-09-13T14:44:48.426Z,4.32
2022-09-13T14:45:57.984Z,4.80
2022-09-13T14:47:09.048Z,4.85
2022-09-13T14:48:17.430Z,4.85
2022-09-13T14:49:26.425Z,4.78
2022-09-13T14:50:33.316Z,4.78
2022-09-13T14:51:48.147Z,4.53
2022-09-13T14:52:54.438Z,5.30
2022-09-13T14:54:00.920Z,4.50
2022-09-13T14:55:05.650Z,5.45
2022-09-13T14:56:13.733Z,5.03
2022-09-13T14:57:24.130Z,5.45
2022-09-13T14:58:30.270Z,4.60
2022-09-13T14:59:34.473Z,4.55
2022-09-13T15:00:47.846Z,4.95
2022-09-13T15:01:49.849Z,4.38
2022-09-13T15:02:56.138Z,4.32
2022-09-13T15:04:00.029Z,4.18
2022-09-13T15:05:09.008Z,4.28
2022-09-13T15:06:24.107Z,5.40
2022-09-13T15:07:30.804Z,4.57
2022-09-13T15:08:46.014Z,4.72
2022-09-13T15:09:49.630Z,4.03
2022-09-13T15:10:51.646Z,4.38
2022-09-13T15:12:01.000Z,4.20
2022-09-13T15:13:10.410Z,4.60